createdAt,value
2018-09-11T00:00:23.564Z,95097.90
2018-09-11T00:02:52.633Z,95081.94
2018-09-11T00:05:22.017Z,95076.61
2018-09-11T00:07:51.483Z,95082.30
2018-09-11T00:10:20.764Z,95088.75
2018-09-11T00:12:50.195Z,95088.87
2018-09-11T00:15:20.209Z,95086.35
2018-09-11T00:17:49.560Z,95082.49
2018-09-11T00:20:18.829Z,95088.66
2018-09-11T00:22:48.182Z,95085.34
2018-09-11T00:25:17.522Z,95098.70
2018-09-11T00:27:46.852Z,95096.34
2018-09-11T00:30:16.095Z,95089.33
2018-09-11T00:32:46.311Z,95096.45
2018-09-11T00:35:15.557Z,95097.35
2018-09-11T00:37:44.930Z,95098.97
2018-09-11T00:40:14.259Z,95109.69
2018-09-11T00:42:44.261Z,95109.23
2018-09-11T00:45:13.638Z,95116.28
2018-09-11T00:47:42.857Z,95122.07
2018-09-11T00:50:12.335Z,95121.13
2018-09-11T00:52:41.682Z,95115.11
2018-09-11T00:55:11.096Z,95122.03
2018-09-11T00:57:40.549Z,95122.53
2018-09-11T01:00:10.374Z,95119.81
2018-09-11T01:02:39.613Z,95125.88
2018-09-11T01:05:08.893Z,95112.06
2018-09-11T01:07:38.483Z,95122.37
2018-09-11T01:10:09.512Z,95116.16
2018-09-11T01:12:39.064Z,95116.26
2018-09-11T01:15:09.656Z,95113.45
2018-09-11T01:17:39.138Z,95108.34
2018-09-11T01:20:08.920Z,95116.26
2018-09-11T01:22:38.379Z,95110.50
2018-09-11T01:25:07.682Z,95110.50
2018-09-11T01:27:36.915Z,95115.14
2018-09-11T01:30:06.652Z,95112.81
2018-09-11T01:32:35.969Z,95112.00
2018-09-11T01:35:05.213Z,95108.80
2018-09-11T01:37:34.448Z,95120.42
2018-09-11T01:40:03.579Z,95114.75
2018-09-11T01:42:32.800Z,95114.41
2018-09-11T01:45:02.253Z,95119.12
2018-09-11T01:47:31.635Z,95113.10
2018-09-11T01:50:00.995Z,95114.50
2018-09-11T01:52:30.248Z,95119.81
2018-09-11T01:54:59.693Z,95113.44
2018-09-11T01:57:28.973Z,95120.42
2018-09-11T01:59:58.301Z,95112.11
2018-09-11T02:02:27.542Z,95118.75
2018-09-11T02:04:57.036Z,95116.05
2018-09-11T02:07:26.437Z,95111.81
2018-09-11T02:09:55.949Z,95117.25
2018-09-11T02:12:25.338Z,95122.26
2018-09-11T02:14:54.574Z,95122.96
2018-09-11T02:17:24.043Z,95129.38
2018-09-11T02:19:53.386Z,95127.77
2018-09-11T02:22:22.759Z,95134.84
2018-09-11T02:24:51.988Z,95124.63
2018-09-11T02:27:21.417Z,95124.36
2018-09-11T02:29:50.781Z,95127.33
2018-09-11T02:32:20.028Z,95131.54
2018-09-11T02:34:49.427Z,95125.23
2018-09-11T02:37:18.747Z,95123.95
2018-09-11T02:39:48.000Z,95129.96
2018-09-11T02:42:17.468Z,95127.36
2018-09-11T02:44:46.796Z,95126.26
2018-09-11T02:47:16.248Z,95127.25
2018-09-11T02:49:45.644Z,95131.66
2018-09-11T02:52:15.087Z,95130.75
2018-09-11T02:54:44.541Z,95127.38
2018-09-11T02:57:13.887Z,95126.48
2018-09-11T02:59:43.299Z,95136.58
2018-09-11T03:02:12.671Z,95127.27
2018-09-11T03:04:41.841Z,95129.96
2018-09-11T03:07:11.482Z,95138.66
2018-09-11T03:09:40.849Z,95133.16
2018-09-11T03:12:10.495Z,95140.57
2018-09-11T03:14:39.718Z,95144.08
2018-09-11T03:17:11.524Z,95136.45
2018-09-11T03:19:40.843Z,95140.36
2018-09-11T03:22:10.238Z,95140.97
2018-09-11T03:24:39.776Z,95145.56
2018-09-11T03:27:09.232Z,95141.48
2018-09-11T03:29:38.678Z,95144.28
2018-09-11T03:32:08.024Z,95147.58
2018-09-11T03:34:37.806Z,95143.69
2018-09-11T03:37:07.266Z,95149.38
2018-09-11T03:39:36.640Z,95154.17
2018-09-11T03:42:06.039Z,95156.09
2018-09-11T03:44:35.562Z,95162.80
2018-09-11T03:47:05.323Z,95164.97
2018-09-11T03:49:34.551Z,95159.95
2018-09-11T03:52:04.003Z,95160.95
2018-09-11T03:54:33.393Z,95165.58
2018-09-11T03:57:02.805Z,95164.45
2018-09-11T03:59:32.235Z,95161.33
2018-09-11T04:02:01.682Z,95164.84
2018-09-11T04:04:31.214Z,95162.02
2018-09-11T04:07:00.933Z,95164.84
2018-09-11T04:09:30.423Z,95166.53
2018-09-11T04:11:59.854Z,95168.94
2018-09-11T04:14:29.063Z,95162.44
2018-09-11T04:16:58.440Z,95164.23
2018-09-11T04:19:27.909Z,95165.84
2018-09-11T04:21:57.195Z,95172.67
2018-09-11T04:24:26.573Z,95172.42
2018-09-11T04:26:55.928Z,95170.57
2018-09-11T04:29:25.428Z,95174.14
2018-09-11T04:31:54.932Z,95176.52
2018-09-11T04:34:24.278Z,95178.32
2018-09-11T04:36:53.811Z,95178.82
2018-09-11T04:39:23.091Z,95175.03
2018-09-11T04:41:52.447Z,95175.88
2018-09-11T04:44:21.777Z,95183.11
2018-09-11T04:46:51.075Z,95183.49
2018-09-11T04:49:20.381Z,95185.09
2018-09-11T04:51:49.612Z,95181.39
2018-09-11T04:54:19.049Z,95181.58
2018-09-11T04:56:48.554Z,95190.55
2018-09-11T04:59:18.032Z,95188.75
2018-09-11T05:01:47.495Z,95188.72
2018-09-11T05:04:16.872Z,95192.81
2018-09-11T05:06:46.409Z,95199.23
2018-09-11T05:09:15.621Z,95190.33
2018-09-11T05:11:44.855Z,95198.55
2018-09-11T05:14:14.532Z,95197.30
2018-09-11T05:16:43.947Z,95195.45
2018-09-11T05:19:13.207Z,95198.35
2018-09-11T05:21:43.246Z,95202.62
2018-09-11T05:24:12.583Z,95204.85
2018-09-11T05:26:41.979Z,95202.77
2018-09-11T05:29:11.118Z,95200.64
2018-09-11T05:31:40.612Z,95206.06
2018-09-11T05:34:10.116Z,95206.48
2018-09-11T05:36:39.646Z,95204.19
2018-09-11T05:39:10.189Z,95202.88
2018-09-11T05:41:39.605Z,95202.38
2018-09-11T05:44:08.941Z,95206.99
2018-09-11T05:46:38.284Z,95207.09
2018-09-11T05:49:08.683Z,95211.89
2018-09-11T05:51:38.566Z,95211.49
2018-09-11T05:54:08.369Z,95209.69
2018-09-11T05:56:37.667Z,95216.50
2018-09-11T05:59:06.889Z,95214.20
2018-09-11T06:01:36.220Z,95221.13
2018-09-11T06:04:05.498Z,95224.58
2018-09-11T06:06:34.863Z,95230.82
2018-09-11T06:09:06.904Z,95227.88
2018-09-11T06:11:36.500Z,95234.90
2018-09-11T06:14:06.024Z,95227.84
2018-09-11T06:16:35.539Z,95228.70
2018-09-11T06:19:05.124Z,95230.20
2018-09-11T06:21:34.818Z,95228.64
2018-09-11T06:24:04.350Z,95229.68
2018-09-11T06:26:33.681Z,95227.14
2018-09-11T06:29:03.674Z,95228.55
2018-09-11T06:31:33.245Z,95227.70
2018-09-11T06:34:03.120Z,95227.44
2018-09-11T06:36:32.371Z,95227.92
2018-09-11T06:39:01.744Z,95220.08
2018-09-11T06:41:31.299Z,95221.22
2018-09-11T06:44:00.709Z,95220.55
2018-09-11T06:46:29.995Z,95214.94
2018-09-11T06:48:59.314Z,95222.13
2018-09-11T06:51:28.723Z,95216.27
2018-09-11T06:53:58.047Z,95220.77
2018-09-11T06:56:27.419Z,95217.07
2018-09-11T06:58:56.714Z,95214.03
2018-09-11T07:01:26.046Z,95219.81
2018-09-11T07:03:55.267Z,95213.56
2018-09-11T07:06:24.559Z,95219.84
2018-09-11T07:08:53.931Z,95215.19
2018-09-11T07:11:23.234Z,95215.16
2018-09-11T07:13:52.733Z,95207.36
2018-09-11T07:16:22.152Z,95206.81
2018-09-11T07:18:51.531Z,95204.63
2018-09-11T07:21:20.824Z,95204.27
2018-09-11T07:23:50.770Z,95196.02
2018-09-11T07:26:20.101Z,95188.78
2018-09-11T07:28:49.543Z,95190.44
2018-09-11T07:31:18.842Z,95194.03
2018-09-11T07:33:48.150Z,95190.87
2018-09-11T07:36:17.487Z,95190.49
2018-09-11T07:38:47.778Z,95187.86
2018-09-11T07:41:17.131Z,95194.69
2018-09-11T07:43:46.468Z,95191.69
2018-09-11T07:46:15.904Z,95190.56
2018-09-11T07:48:45.148Z,95185.30
2018-09-11T07:51:14.427Z,95183.56
2018-09-11T07:53:43.783Z,95181.43
2018-09-11T07:56:13.115Z,95190.52
2018-09-11T07:58:42.325Z,95184.75
2018-09-11T08:01:11.640Z,95182.48
2018-09-11T08:03:41.072Z,95180.33
2018-09-11T08:06:10.540Z,95176.92
2018-09-11T08:08:39.909Z,95186.16
2018-09-11T08:11:09.350Z,95189.27
2018-09-11T08:13:39.062Z,95183.54
2018-09-11T08:16:08.382Z,95184.36
2018-09-11T08:18:38.105Z,95180.56
2018-09-11T08:21:07.659Z,95183.41
2018-09-11T08:23:37.652Z,95179.49
2018-09-11T08:26:07.426Z,95172.36
2018-09-11T08:28:36.884Z,95168.39
2018-09-11T08:31:06.148Z,95170.51
2018-09-11T08:33:36.427Z,95167.98
2018-09-11T08:36:06.616Z,95162.73
2018-09-11T08:38:35.857Z,95163.84
2018-09-11T08:41:05.504Z,95164.65
2018-09-11T08:43:34.744Z,95157.75
2018-09-11T08:46:03.945Z,95160.27
2018-09-11T08:48:33.658Z,95150.28
2018-09-11T08:51:03.093Z,95155.72
2018-09-11T08:53:32.486Z,95152.19
2018-09-11T08:56:01.837Z,95149.94
2018-09-11T08:58:31.451Z,95150.71
2018-09-11T09:01:00.846Z,95147.25
2018-09-11T09:03:30.151Z,95139.06
2018-09-11T09:06:00.268Z,95139.86
2018-09-11T09:08:29.561Z,95140.66
2018-09-11T09:10:58.932Z,95136.34
2018-09-11T09:13:27.956Z,95132.72
2018-09-11T09:15:57.343Z,95128.13
2018-09-11T09:18:26.651Z,95129.00
2018-09-11T09:20:57.357Z,95121.02
2018-09-11T09:23:26.764Z,95113.38
2018-09-11T09:25:56.102Z,95111.95
2018-09-11T09:28:25.868Z,95108.61
2018-09-11T09:30:55.229Z,95102.83
2018-09-11T09:33:24.733Z,95097.70
2018-09-11T09:35:54.391Z,95105.59
2018-09-11T09:38:23.718Z,95108.19
2018-09-11T09:40:53.208Z,95104.14
2018-09-11T09:43:22.758Z,95096.70
2018-09-11T09:45:52.219Z,95095.73
2018-09-11T09:48:21.828Z,95087.82
2018-09-11T09:50:51.250Z,95088.56
2018-09-11T09:53:21.713Z,95085.45
2018-09-11T09:55:51.134Z,95091.58
2018-09-11T09:58:20.630Z,95088.41
2018-09-11T10:00:55.111Z,95083.12
2018-09-11T10:03:24.513Z,95086.66
2018-09-11T10:05:55.187Z,95083.10
2018-09-11T10:08:24.599Z,95078.84
2018-09-11T10:10:53.895Z,95081.20
2018-09-11T10:13:23.296Z,95078.41
2018-09-11T10:15:53.438Z,95071.63
2018-09-11T10:18:22.753Z,95069.33
2018-09-11T10:20:52.173Z,95071.26
2018-09-11T10:23:22.197Z,95063.99
2018-09-11T10:25:51.509Z,95066.66
2018-09-11T10:28:20.844Z,95064.77
2018-09-11T10:30:50.145Z,95062.67
2018-09-11T10:33:19.444Z,95054.53
2018-09-11T10:35:48.701Z,95054.48
2018-09-11T10:38:19.027Z,95051.91
2018-09-11T10:40:48.426Z,95053.02
2018-09-11T10:43:18.025Z,95056.33
2018-09-11T10:45:47.401Z,95056.13
2018-09-11T10:48:16.733Z,95047.55
2018-09-11T10:50:46.132Z,95040.56
2018-09-11T10:53:16.436Z,95030.80
2018-09-11T10:55:46.017Z,95027.03
2018-09-11T10:58:15.674Z,95031.29
2018-09-11T11:00:45.667Z,95030.11
2018-09-11T11:03:15.318Z,95035.41
2018-09-11T11:05:44.816Z,95033.49
2018-09-11T11:08:14.251Z,95027.10
2018-09-11T11:10:43.728Z,95026.28
2018-09-11T11:13:13.287Z,95021.70
2018-09-11T11:15:42.595Z,95018.72
2018-09-11T11:18:12.188Z,95012.39
2018-09-11T11:20:41.482Z,95007.84
2018-09-11T11:23:10.744Z,95005.29
2018-09-11T11:25:40.163Z,95008.33
2018-09-11T11:28:10.434Z,95008.66
2018-09-11T11:30:40.826Z,95002.23
2018-09-11T11:33:10.235Z,94990.36
2018-09-11T11:35:39.667Z,94987.37
2018-09-11T11:38:09.648Z,94985.14
2018-09-11T11:40:39.780Z,94983.58
2018-09-11T11:43:08.965Z,94976.47
2018-09-11T11:45:39.368Z,94974.12
2018-09-11T11:48:08.880Z,94970.01
2018-09-11T11:50:38.784Z,94969.44
2018-09-11T11:53:08.521Z,94963.61
2018-09-11T11:55:37.904Z,94952.97
2018-09-11T11:58:07.280Z,94958.44
2018-09-11T12:00:36.678Z,94953.09
2018-09-11T12:03:06.115Z,94959.30
2018-09-11T12:05:35.501Z,94960.72
2018-09-11T12:08:05.194Z,94950.92
2018-09-11T12:10:34.775Z,94951.28
2018-09-11T12:13:04.125Z,94952.02
2018-09-11T12:15:33.509Z,94943.53
2018-09-11T12:18:02.832Z,94945.40
2018-09-11T12:20:33.525Z,94951.30
2018-09-11T12:23:03.116Z,94949.77
2018-09-11T12:25:32.749Z,94954.95
2018-09-11T12:28:02.714Z,94947.05
2018-09-11T12:30:33.204Z,94947.43
2018-09-11T12:33:02.809Z,94943.98
2018-09-11T12:35:32.141Z,94939.64
2018-09-11T12:38:02.140Z,94943.16
2018-09-11T12:40:31.809Z,94944.09
2018-09-11T12:43:02.137Z,94945.28
2018-09-11T12:45:32.026Z,94939.59
2018-09-11T12:48:01.844Z,94934.89
2018-09-11T12:50:30.707Z,94941.61
2018-09-11T12:53:00.190Z,94935.44
2018-09-11T12:55:29.968Z,94934.75
2018-09-11T12:57:59.370Z,94940.22
2018-09-11T13:00:28.782Z,94931.86
2018-09-11T13:02:59.897Z,94930.78
2018-09-11T13:05:30.193Z,94934.38
2018-09-11T13:07:59.990Z,94927.39
2018-09-11T13:10:29.325Z,94927.72
2018-09-11T13:12:58.874Z,94929.34
2018-09-11T13:15:28.402Z,94925.60
2018-09-11T13:17:57.942Z,94926.95
2018-09-11T13:20:27.308Z,94932.19
2018-09-11T13:22:56.744Z,94923.97
2018-09-11T13:25:26.152Z,94928.80
2018-09-11T13:27:55.872Z,94921.67
2018-09-11T13:30:26.873Z,94922.13
2018-09-11T13:32:57.243Z,94915.98
2018-09-11T13:35:27.451Z,94914.89
2018-09-11T13:37:57.560Z,94914.98
2018-09-11T13:40:27.495Z,94911.64
2018-09-11T13:42:57.313Z,94910.27
2018-09-11T13:45:27.928Z,94907.42
2018-09-11T13:47:58.052Z,94914.52
2018-09-11T13:50:27.580Z,94905.67
2018-09-11T13:52:57.067Z,94907.98
2018-09-11T13:55:26.616Z,94903.34
2018-09-11T13:57:56.009Z,94907.03
2018-09-11T14:00:25.329Z,94908.08
2018-09-11T14:02:54.896Z,94914.88
2018-09-11T14:05:24.338Z,94901.78
2018-09-11T14:07:53.904Z,94904.69
2018-09-11T14:10:23.792Z,94901.91
2018-09-11T14:12:53.234Z,94899.55
2018-09-11T14:15:22.768Z,94897.86
2018-09-11T14:17:52.105Z,94894.52
2018-09-11T14:20:21.585Z,94896.58
2018-09-11T14:22:51.164Z,94893.16
2018-09-11T14:25:20.680Z,94895.41
2018-09-11T14:27:50.154Z,94892.77
2018-09-11T14:30:19.822Z,94896.63
2018-09-11T14:32:49.690Z,94893.05
2018-09-11T14:35:19.120Z,94892.41
2018-09-11T14:37:49.067Z,94898.12
2018-09-11T14:40:18.727Z,94897.17
2018-09-11T14:42:49.376Z,94893.66
2018-09-11T14:45:22.765Z,94895.36
2018-09-11T14:47:53.834Z,94893.91
2018-09-11T14:50:23.884Z,94897.02
2018-09-11T14:52:53.402Z,94898.25
2018-09-11T14:55:23.164Z,94904.75
2018-09-11T14:57:52.701Z,94902.98
2018-09-11T15:00:22.317Z,94902.00
2018-09-11T15:02:51.848Z,94898.60
2018-09-11T15:05:22.626Z,94901.05
2018-09-11T15:07:52.076Z,94899.69
2018-09-11T15:10:21.470Z,94902.02
2018-09-11T15:12:50.837Z,94901.44
2018-09-11T15:15:20.371Z,94900.10
2018-09-11T15:17:49.853Z,94901.66
2018-09-11T15:20:20.393Z,94897.66
2018-09-11T15:22:50.425Z,94894.47
2018-09-11T15:25:19.878Z,94907.06
2018-09-11T15:27:49.421Z,94894.38
2018-09-11T15:30:19.247Z,94891.80
2018-09-11T15:32:48.699Z,94895.36
2018-09-11T15:35:18.160Z,94893.87
2018-09-11T15:37:47.646Z,94895.21
2018-09-11T15:40:17.176Z,94896.53
2018-09-11T15:42:46.430Z,94897.98
2018-09-11T15:45:15.776Z,94898.42
2018-09-11T15:47:45.083Z,94901.80
2018-09-11T15:50:14.579Z,94899.06
2018-09-11T15:52:45.097Z,94897.59
2018-09-11T15:55:15.721Z,94895.45
2018-09-11T15:57:45.296Z,94900.11
2018-09-11T16:00:15.550Z,94905.42
2018-09-11T16:02:46.004Z,94908.38
2018-09-11T16:05:15.427Z,94906.53
2018-09-11T16:07:45.401Z,94904.28
2018-09-11T16:10:14.748Z,94905.27
2018-09-11T16:12:46.058Z,94907.91
2018-09-11T16:15:15.352Z,94904.54
2018-09-11T16:17:44.755Z,94904.89
2018-09-11T16:20:14.236Z,94902.91
2018-09-11T16:22:43.633Z,94899.54
2018-09-11T16:25:14.628Z,94903.78
2018-09-11T16:27:44.104Z,94901.40
2018-09-11T16:30:13.616Z,94900.55
2018-09-11T16:32:43.074Z,94892.66
2018-09-11T16:35:13.101Z,94896.38
2018-09-11T16:37:43.683Z,94897.17
2018-09-11T16:40:13.269Z,94897.97
2018-09-11T16:42:42.755Z,94899.81
2018-09-11T16:45:12.288Z,94896.91
2018-09-11T16:47:42.052Z,94896.70
2018-09-11T16:50:12.057Z,94900.41
2018-09-11T16:52:41.611Z,94898.87
2018-09-11T16:55:11.921Z,94901.52
2018-09-11T16:57:41.350Z,94894.16
2018-09-11T17:00:10.792Z,94897.07
2018-09-11T17:02:40.955Z,94900.51
2018-09-11T17:05:11.801Z,94901.03
2018-09-11T17:07:42.329Z,94907.38
2018-09-11T17:10:13.896Z,94902.11
2018-09-11T17:12:45.090Z,94902.37
2018-09-11T17:15:14.608Z,94903.43
2018-09-11T17:17:45.523Z,94906.59
2018-09-11T17:20:15.278Z,94906.33
2018-09-11T17:22:45.115Z,94911.34
2018-09-11T17:25:14.545Z,94911.34
2018-09-11T17:27:43.917Z,94911.28
2018-09-11T17:30:14.281Z,94909.48
2018-09-11T17:32:43.780Z,94912.07
2018-09-11T17:35:16.602Z,94920.20
2018-09-11T17:37:46.277Z,94929.67
2018-09-11T17:40:15.784Z,94931.48
2018-09-11T17:42:46.223Z,94934.59
2018-09-11T17:45:15.640Z,94945.09
2018-09-11T17:47:45.718Z,94939.69
2018-09-11T17:50:15.461Z,94941.42
2018-09-11T17:52:44.896Z,94947.95
2018-09-11T17:55:14.668Z,94948.54
2018-09-11T17:57:44.529Z,94954.09
2018-09-11T18:00:14.128Z,94961.07
2018-09-11T18:02:44.855Z,94963.55
2018-09-11T18:05:14.238Z,94962.80
2018-09-11T18:07:43.917Z,94970.84
2018-09-11T18:10:13.349Z,94971.89
2018-09-11T18:12:42.719Z,94978.92
2018-09-11T18:15:12.401Z,94985.05
2018-09-11T18:17:41.803Z,94989.34
2018-09-11T18:20:11.464Z,94983.88
2018-09-11T18:22:40.996Z,94991.56
2018-09-11T18:25:11.282Z,94999.53
2018-09-11T18:27:41.046Z,95000.95
2018-09-11T18:30:11.763Z,95004.97
2018-09-11T18:32:41.274Z,95011.36
2018-09-11T18:35:14.309Z,95016.05
2018-09-11T18:37:45.399Z,95024.27
2018-09-11T18:40:16.781Z,95020.72
2018-09-11T18:42:47.377Z,95025.57
2018-09-11T18:45:17.851Z,95028.69
2018-09-11T18:47:49.273Z,95029.23
2018-09-11T18:50:18.831Z,95028.56
2018-09-11T18:52:48.574Z,95029.67
2018-09-11T18:55:19.370Z,95034.03
2018-09-11T18:57:49.705Z,95036.58
2018-09-11T19:00:23.694Z,95044.19
2018-09-11T19:02:53.462Z,95048.61
2018-09-11T19:05:22.942Z,95053.66
2018-09-11T19:07:52.540Z,95056.05
2018-09-11T19:10:21.910Z,95059.33
2018-09-11T19:12:51.401Z,95053.98
2018-09-11T19:15:20.728Z,95060.64
2018-09-11T19:17:50.209Z,95060.14
2018-09-11T19:20:19.872Z,95070.41
2018-09-11T19:22:49.372Z,95067.31
2018-09-11T19:25:18.708Z,95070.13
2018-09-11T19:27:48.965Z,95070.17
2018-09-11T19:30:19.457Z,95077.02
2018-09-11T19:32:49.572Z,95078.59
2018-09-11T19:35:18.909Z,95078.80
2018-09-11T19:37:49.244Z,95089.76
2018-09-11T19:40:18.744Z,95092.85
2018-09-11T19:42:48.187Z,95088.25
2018-09-11T19:45:17.695Z,95091.41
2018-09-11T19:47:47.155Z,95087.13
2018-09-11T19:50:16.755Z,95098.91
2018-09-11T19:52:46.153Z,95099.69
2018-09-11T19:55:16.102Z,95090.84
2018-09-11T19:57:45.587Z,95089.11
2018-09-11T20:00:14.858Z,95087.55
2018-09-11T20:02:44.323Z,95089.06
2018-09-11T20:05:13.671Z,95099.88
2018-09-11T20:07:43.006Z,95104.48
2018-09-11T20:10:12.330Z,95104.51
2018-09-11T20:12:41.951Z,95112.20
2018-09-11T20:15:11.185Z,95117.77
2018-09-11T20:17:40.695Z,95118.59
2018-09-11T20:20:10.799Z,95116.72
2018-09-11T20:22:40.196Z,95120.30
2018-09-11T20:25:09.604Z,95125.55
2018-09-11T20:27:40.820Z,95126.36
2018-09-11T20:30:10.808Z,95130.21
2018-09-11T20:32:40.338Z,95140.13
2018-09-11T20:35:09.842Z,95141.17
2018-09-11T20:37:39.057Z,95144.53
2018-09-11T20:40:08.727Z,95143.52
2018-09-11T20:42:38.640Z,95149.55
2018-09-11T20:45:08.394Z,95150.70
2018-09-11T20:47:37.663Z,95147.45
2018-09-11T20:50:07.248Z,95146.64
2018-09-11T20:52:36.551Z,95141.66
2018-09-11T20:55:06.302Z,95150.61
2018-09-11T20:57:36.215Z,95147.98
2018-09-11T21:00:05.844Z,95144.22
2018-09-11T21:02:35.797Z,95151.92
2018-09-11T21:05:05.006Z,95149.45
2018-09-11T21:07:35.362Z,95158.59
2018-09-11T21:10:04.753Z,95162.42
2018-09-11T21:12:35.500Z,95158.88
2018-09-11T21:15:04.867Z,95155.82
2018-09-11T21:17:34.472Z,95159.09
2018-09-11T21:20:03.912Z,95156.13
2018-09-11T21:22:33.381Z,95154.28
2018-09-11T21:25:03.144Z,95156.97
2018-09-11T21:27:32.467Z,95158.52
2018-09-11T21:30:01.798Z,95159.53
2018-09-11T21:32:31.907Z,95158.98
2018-09-11T21:35:01.399Z,95162.03
2018-09-11T21:37:31.668Z,95160.80
2018-09-11T21:40:01.067Z,95163.06
2018-09-11T21:42:30.682Z,95162.19
2018-09-11T21:45:00.152Z,95161.27
2018-09-11T21:47:29.621Z,95161.09
2018-09-11T21:49:58.876Z,95163.38
2018-09-11T21:52:28.218Z,95163.09
2018-09-11T21:54:57.669Z,95167.91
2018-09-11T21:57:26.999Z,95161.05
2018-09-11T21:59:56.248Z,95168.92
2018-09-11T22:02:25.911Z,95167.97
2018-09-11T22:04:55.292Z,95174.44
2018-09-11T22:07:25.606Z,95167.16
2018-09-11T22:09:54.900Z,95165.14
2018-09-11T22:12:24.249Z,95168.90
2018-09-11T22:14:53.547Z,95161.27
2018-09-11T22:17:22.844Z,95164.64
2018-09-11T22:19:52.158Z,95159.88
2018-09-11T22:22:21.511Z,95162.71
2018-09-11T22:24:51.061Z,95164.66
2018-09-11T22:27:20.507Z,95166.45
2018-09-11T22:29:49.793Z,95162.75
2018-09-11T22:32:18.978Z,95166.28
2018-09-11T22:34:48.418Z,95160.26
2018-09-11T22:37:17.698Z,95165.48
2018-09-11T22:39:47.022Z,95165.61
2018-09-11T22:42:16.460Z,95168.81
2018-09-11T22:44:45.806Z,95174.09
2018-09-11T22:47:15.134Z,95176.89
2018-09-11T22:49:44.664Z,95179.52
2018-09-11T22:52:14.170Z,95176.22
2018-09-11T22:54:43.663Z,95174.33
2018-09-11T22:57:13.165Z,95175.13
2018-09-11T22:59:42.830Z,95172.09
2018-09-11T23:02:12.167Z,95174.20
2018-09-11T23:04:41.551Z,95172.52
2018-09-11T23:07:10.839Z,95174.28
2018-09-11T23:09:40.306Z,95172.22
2018-09-11T23:12:09.734Z,95172.27
2018-09-11T23:14:38.892Z,95174.47
2018-09-11T23:17:08.414Z,95169.82
2018-09-11T23:19:37.827Z,95170.03
2018-09-11T23:22:07.162Z,95174.05
2018-09-11T23:24:36.503Z,95175.35
2018-09-11T23:27:05.899Z,95170.48
2018-09-11T23:29:35.264Z,95175.72
2018-09-11T23:32:04.686Z,95180.40
2018-09-11T23:34:34.954Z,95176.64
2018-09-11T23:37:04.220Z,95181.76
2018-09-11T23:39:33.582Z,95188.12
2018-09-11T23:42:03.796Z,95185.13
2018-09-11T23:44:33.374Z,95182.98
2018-09-11T23:47:02.963Z,95179.19
2018-09-11T23:49:32.477Z,95172.52
2018-09-11T23:52:02.016Z,95176.06
2018-09-11T23:54:32.034Z,95171.65
2018-09-11T23:57:01.334Z,95172.20
2018-09-11T23:59:30.592Z,95170.84
